createdAt,value
2019-05-01T00:02:34.726Z,96.40
2019-05-01T00:05:21.680Z,96.30
2019-05-01T00:07:49.324Z,96.40
2019-05-01T00:10:19.517Z,96.50
2019-05-01T00:12:47.731Z,96.50
2019-05-01T00:15:16.164Z,96.40
2019-05-01T00:17:43.636Z,96.30
2019-05-01T00:20:11.292Z,96.30
2019-05-01T00:22:38.742Z,96.30
2019-05-01T00:25:07.004Z,96.30
2019-05-01T00:27:34.488Z,96.10
2019-05-01T00:30:01.938Z,96.40
2019-05-01T00:32:29.775Z,96.30
2019-05-01T00:34:57.292Z,96.40
2019-05-01T00:37:24.728Z,96.20
2019-05-01T00:39:52.156Z,96.00
2019-05-01T00:42:19.593Z,95.90
2019-05-01T00:44:47.039Z,95.90
2019-05-01T00:47:14.460Z,95.90
2019-05-01T00:49:41.912Z,96.00
2019-05-01T00:52:09.327Z,96.00
2019-05-01T00:54:38.668Z,95.90
2019-05-01T00:57:16.292Z,95.90
2019-05-01T00:59:49.164Z,96.00
2019-05-01T01:02:45.348Z,96.20
2019-05-01T01:05:12.768Z,96.30
2019-05-01T01:07:40.219Z,96.30
2019-05-01T01:10:07.779Z,96.40
2019-05-01T01:12:35.220Z,96.40
2019-05-01T01:15:03.504Z,96.20
2019-05-01T01:17:30.920Z,96.20
2019-05-01T01:19:58.363Z,96.10
2019-05-01T01:22:25.788Z,95.80
2019-05-01T01:24:53.680Z,95.90
2019-05-01T01:27:21.207Z,95.80
2019-05-01T01:29:48.656Z,95.60
2019-05-01T01:32:16.373Z,95.40
2019-05-01T01:34:44.036Z,95.50
2019-05-01T01:37:11.455Z,95.60
2019-05-01T01:39:39.108Z,95.70
2019-05-01T01:42:07.420Z,95.90
2019-05-01T01:44:48.780Z,95.90
2019-05-01T01:47:16.201Z,96.00
2019-05-01T01:49:43.871Z,96.00
2019-05-01T01:52:11.424Z,96.00
2019-05-01T01:54:38.873Z,96.00
2019-05-01T01:57:06.311Z,95.90
2019-05-01T01:59:33.825Z,95.80
2019-05-01T02:02:14.797Z,95.80
2019-05-01T02:05:02.021Z,95.70
2019-05-01T02:07:29.474Z,95.70
2019-05-01T02:09:56.935Z,95.50
2019-05-01T02:12:24.376Z,95.50
2019-05-01T02:14:51.872Z,95.60
2019-05-01T02:17:19.308Z,95.30
2019-05-01T02:19:46.821Z,95.30
2019-05-01T02:22:14.254Z,95.50
2019-05-01T02:24:41.713Z,95.60
2019-05-01T02:27:14.423Z,95.80
2019-05-01T02:29:49.389Z,95.90
2019-05-01T02:32:17.542Z,96.10
2019-05-01T02:34:46.315Z,96.30
2019-05-01T02:37:15.157Z,96.50
2019-05-01T02:39:44.156Z,96.50
2019-05-01T02:42:13.781Z,96.50
2019-05-01T02:44:46.220Z,96.50
2019-05-01T02:47:19.517Z,96.00
2019-05-01T02:49:52.711Z,95.90
2019-05-01T02:52:24.440Z,96.00
2019-05-01T02:54:54.367Z,96.20
2019-05-01T02:57:23.192Z,96.20
2019-05-01T02:59:52.659Z,96.20
2019-05-01T03:02:23.756Z,96.10
2019-05-01T03:04:52.116Z,95.80
2019-05-01T03:07:21.322Z,96.00
2019-05-01T03:09:49.192Z,96.10
2019-05-01T03:12:18.893Z,95.90
2019-05-01T03:14:49.350Z,96.00
2019-05-01T03:17:52.137Z,96.00
2019-05-01T03:20:41.849Z,96.00
2019-05-01T03:23:37.859Z,95.80
2019-05-01T03:26:05.813Z,96.00
2019-05-01T03:28:33.349Z,96.10
2019-05-01T03:31:01.254Z,96.20
2019-05-01T03:33:28.792Z,96.10
2019-05-01T03:35:56.784Z,96.20
2019-05-01T03:38:24.988Z,96.00
2019-05-01T03:40:52.550Z,95.90
2019-05-01T03:43:20.407Z,95.80
2019-05-01T03:45:48.291Z,95.80
2019-05-01T03:48:15.729Z,95.80
2019-05-01T03:50:46.572Z,95.80
2019-05-01T03:53:13.271Z,95.90
2019-05-01T03:55:40.715Z,95.90
2019-05-01T03:58:08.364Z,95.80
2019-05-01T04:00:58.556Z,96.00
2019-05-01T04:03:47.724Z,96.10
2019-05-01T04:06:15.385Z,96.00
2019-05-01T04:08:43.152Z,96.10
2019-05-01T04:11:10.707Z,96.00
2019-05-01T04:13:38.563Z,96.00
2019-05-01T04:16:06.241Z,95.60
2019-05-01T04:18:33.805Z,95.60
2019-05-01T04:21:01.926Z,95.70
2019-05-01T04:23:29.788Z,95.80
2019-05-01T04:25:57.317Z,95.90
2019-05-01T04:28:31.660Z,96.10
2019-05-01T04:31:06.641Z,95.80
2019-05-01T04:33:35.127Z,96.00
2019-05-01T04:36:08.042Z,95.90
2019-05-01T04:38:35.507Z,95.90
2019-05-01T04:41:02.924Z,96.00
2019-05-01T04:43:30.367Z,96.20
2019-05-01T04:45:57.925Z,96.30
2019-05-01T04:48:25.675Z,96.40
2019-05-01T04:50:53.296Z,96.50
2019-05-01T04:53:20.848Z,96.70
2019-05-01T04:55:48.372Z,96.90
2019-05-01T04:58:16.041Z,96.90
2019-05-01T05:00:43.560Z,96.80
2019-05-01T05:03:15.508Z,96.80
2019-05-01T05:05:43.123Z,97.10
2019-05-01T05:08:10.681Z,97.30
2019-05-01T05:10:38.199Z,97.40
2019-05-01T05:13:31.183Z,97.20
2019-05-01T05:16:07.017Z,97.20
2019-05-01T05:18:34.569Z,96.90
2019-05-01T05:21:02.104Z,96.80
2019-05-01T05:23:30.275Z,96.30
2019-05-01T05:25:57.716Z,96.00
2019-05-01T05:28:26.094Z,95.90
2019-05-01T05:30:55.711Z,95.50
2019-05-01T05:33:25.976Z,95.40
2019-05-01T05:35:55.136Z,95.00
2019-05-01T05:38:52.380Z,94.70
2019-05-01T05:41:22.367Z,94.30
2019-05-01T05:43:50.251Z,93.70
2019-05-01T05:46:18.079Z,93.20
2019-05-01T05:48:45.632Z,93.20
2019-05-01T05:51:34.464Z,92.40
2019-05-01T05:54:08.587Z,92.10
2019-05-01T05:56:44.524Z,91.80
2019-05-01T05:59:18.241Z,91.80
2019-05-01T06:02:25.879Z,91.40
2019-05-01T06:05:26.370Z,91.20
2019-05-01T06:08:14.417Z,91.60
2019-05-01T06:10:58.683Z,91.20
2019-05-01T06:14:02.463Z,91.40
2019-05-01T06:16:42.535Z,91.10
2019-05-01T06:19:19.625Z,90.80
2019-05-01T06:22:15.156Z,90.70
2019-05-01T06:24:46.184Z,91.20
2019-05-01T06:27:15.086Z,91.40
2019-05-01T06:29:43.219Z,91.10
2019-05-01T06:32:10.698Z,90.80
2019-05-01T06:34:38.572Z,90.80
2019-05-01T06:37:06.008Z,90.40
2019-05-01T06:39:33.771Z,90.00
2019-05-01T06:42:01.492Z,90.30
2019-05-01T06:44:44.347Z,88.90
2019-05-01T06:47:31.264Z,89.10
2019-05-01T06:50:32.338Z,88.50
2019-05-01T06:53:04.683Z,88.50
2019-05-01T06:55:30.703Z,88.30
2019-05-01T06:57:58.351Z,87.20
2019-05-01T07:00:25.816Z,87.00
2019-05-01T07:02:54.443Z,88.20
2019-05-01T07:05:23.107Z,86.80
2019-05-01T07:07:54.839Z,87.40
2019-05-01T07:10:30.567Z,88.80
2019-05-01T07:12:52.657Z,87.80
2019-05-01T07:15:22.044Z,86.90
2019-05-01T07:17:50.671Z,86.70
2019-05-01T07:20:47.221Z,87.90
2019-05-01T07:23:17.490Z,88.00
2019-05-01T07:25:46.707Z,88.60
2019-05-01T07:28:14.145Z,88.40
2019-05-01T07:30:55.117Z,87.80
2019-05-01T07:33:23.635Z,89.00
2019-05-01T07:35:53.944Z,88.90
2019-05-01T07:38:21.257Z,86.70
2019-05-01T07:40:48.700Z,86.60
2019-05-01T07:43:32.767Z,87.90
2019-05-01T07:46:22.871Z,87.40
2019-05-01T07:48:50.568Z,87.60
2019-05-01T07:51:18.983Z,85.10
2019-05-01T07:53:46.999Z,85.80
2019-05-01T07:56:17.073Z,84.10
2019-05-01T07:58:47.503Z,86.40
2019-05-01T08:01:22.377Z,83.90
2019-05-01T08:03:49.950Z,85.20
2019-05-01T08:06:21.755Z,84.30
2019-05-01T08:08:47.294Z,87.30
2019-05-01T08:11:21.090Z,86.20
2019-05-01T08:14:06.603Z,85.90
2019-05-01T08:16:23.981Z,85.20
2019-05-01T08:18:59.167Z,85.40
2019-05-01T08:21:41.985Z,83.10
2019-05-01T08:24:09.556Z,81.70
2019-05-01T08:26:44.309Z,82.60
2019-05-01T08:29:36.874Z,80.40
2019-05-01T08:32:21.139Z,80.50
2019-05-01T08:34:49.434Z,80.70
2019-05-01T08:37:17.759Z,79.70
2019-05-01T08:39:46.580Z,79.80
2019-05-01T08:42:14.256Z,77.40
2019-05-01T08:44:54.563Z,76.10
2019-05-01T08:47:27.735Z,78.50
2019-05-01T08:50:03.405Z,79.20
2019-05-01T08:52:31.014Z,79.80
2019-05-01T08:54:58.476Z,77.60
2019-05-01T08:57:29.227Z,77.10
2019-05-01T08:59:55.703Z,75.90
2019-05-01T09:02:24.597Z,75.20
2019-05-01T09:05:02.189Z,74.50
2019-05-01T09:07:24.167Z,75.20
2019-05-01T09:09:52.013Z,74.50
2019-05-01T09:12:20.773Z,72.00
2019-05-01T09:14:51.102Z,72.30
2019-05-01T09:17:18.869Z,71.80
2019-05-01T09:19:46.392Z,72.60
2019-05-01T09:22:28.164Z,72.40
2019-05-01T09:24:59.873Z,73.70
2019-05-01T09:27:47.715Z,73.20
2019-05-01T09:30:21.871Z,69.90
2019-05-01T09:32:54.128Z,70.20
2019-05-01T09:35:20.672Z,69.10
2019-05-01T09:37:48.312Z,68.40
2019-05-01T09:40:16.347Z,68.80
2019-05-01T09:42:44.244Z,67.30
2019-05-01T09:45:13.265Z,66.80
2019-05-01T09:47:41.058Z,65.10
2019-05-01T09:50:11.250Z,66.20
2019-05-01T09:52:59.648Z,65.40
2019-05-01T09:55:31.205Z,61.30
2019-05-01T09:57:58.725Z,60.50
2019-05-01T10:00:30.576Z,61.30
2019-05-01T10:02:58.383Z,62.80
2019-05-01T10:05:29.043Z,55.90
2019-05-01T10:07:55.495Z,55.30
2019-05-01T10:10:24.896Z,53.80
2019-05-01T10:12:52.370Z,54.60
2019-05-01T10:15:19.898Z,52.50
2019-05-01T10:17:47.445Z,52.80
2019-05-01T10:20:17.398Z,55.10
2019-05-01T10:22:44.906Z,55.10
2019-05-01T10:25:13.697Z,57.30
2019-05-01T10:27:45.053Z,58.20
2019-05-01T10:30:37.649Z,57.90
2019-05-01T10:33:43.148Z,59.10
2019-05-01T10:36:32.125Z,63.10
2019-05-01T10:39:06.208Z,62.30
2019-05-01T10:41:40.932Z,59.70
2019-05-01T10:44:10.193Z,58.40
2019-05-01T10:46:38.473Z,57.70
2019-05-01T10:49:14.217Z,57.30
2019-05-01T10:51:55.350Z,60.10
2019-05-01T10:54:23.107Z,51.50
2019-05-01T10:56:51.566Z,56.20
2019-05-01T10:59:24.510Z,56.10
2019-05-01T11:01:55.594Z,54.70
2019-05-01T11:04:23.462Z,57.10
2019-05-01T11:06:55.145Z,52.90
2019-05-01T11:09:25.570Z,54.60
2019-05-01T11:11:55.038Z,53.00
2019-05-01T11:14:23.273Z,53.70
2019-05-01T11:16:50.841Z,54.40
2019-05-01T11:19:18.402Z,53.30
2019-05-01T11:21:46.277Z,53.30
2019-05-01T11:24:13.817Z,53.30
2019-05-01T11:26:41.426Z,50.20
2019-05-01T11:29:09.014Z,51.50
2019-05-01T11:32:06.531Z,51.60
2019-05-01T11:34:46.214Z,54.80
2019-05-01T11:37:26.141Z,54.40
2019-05-01T11:39:59.517Z,54.30
2019-05-01T11:42:27.381Z,49.50
2019-05-01T11:44:55.107Z,50.20
2019-05-01T11:47:22.699Z,48.60
2019-05-01T11:49:50.201Z,50.40
2019-05-01T11:52:17.789Z,50.50
2019-05-01T11:54:45.276Z,50.30
2019-05-01T11:57:12.773Z,49.50
2019-05-01T11:59:40.419Z,47.60
2019-05-01T12:02:07.938Z,51.80
2019-05-01T12:04:35.430Z,52.40
2019-05-01T12:07:03.254Z,48.80
2019-05-01T12:09:30.843Z,48.90
2019-05-01T12:12:01.625Z,49.00
2019-05-01T12:14:34.275Z,48.50
2019-05-01T12:17:11.340Z,48.50
2019-05-01T12:19:39.018Z,50.50
2019-05-01T12:22:06.584Z,48.90
2019-05-01T12:24:34.148Z,50.20
2019-05-01T12:27:01.687Z,49.90
2019-05-01T12:29:29.373Z,49.10
2019-05-01T12:31:56.985Z,47.90
2019-05-01T12:34:24.869Z,48.80
2019-05-01T12:37:11.967Z,48.80
2019-05-01T12:39:39.951Z,48.70
2019-05-01T12:42:08.919Z,50.90
2019-05-01T12:44:36.521Z,51.40
2019-05-01T12:47:18.458Z,48.20
2019-05-01T12:49:47.729Z,49.70
2019-05-01T12:52:24.540Z,48.20
2019-05-01T12:55:03.120Z,47.40
2019-05-01T12:57:30.624Z,48.10
2019-05-01T13:00:08.549Z,48.70
2019-05-01T13:02:27.455Z,49.30
2019-05-01T13:04:55.165Z,49.90
2019-05-01T13:07:24.381Z,50.00
2019-05-01T13:09:52.110Z,48.20
2019-05-01T13:12:24.259Z,48.90
2019-05-01T13:14:52.080Z,49.90
2019-05-01T13:17:19.858Z,49.90
2019-05-01T13:19:49.672Z,50.00
2019-05-01T13:22:20.500Z,49.00
2019-05-01T13:24:51.011Z,49.70
2019-05-01T13:27:42.719Z,48.50
2019-05-01T13:33:53.245Z,49.40
2019-05-01T13:44:47.975Z,50.20
2019-05-01T13:47:21.959Z,48.40
2019-05-01T13:49:59.037Z,48.00
2019-05-01T13:52:26.821Z,48.80
2019-05-01T13:54:58.816Z,49.60
2019-05-01T13:57:31.348Z,51.20
2019-05-01T14:00:08.887Z,49.70
2019-05-01T14:03:00.795Z,49.10
2019-05-01T14:05:35.074Z,49.00
2019-05-01T14:08:08.272Z,48.00
2019-05-01T14:10:38.827Z,47.90
2019-05-01T14:13:10.173Z,48.50
2019-05-01T14:15:41.858Z,48.40
2019-05-01T14:18:22.760Z,47.30
2019-05-01T14:21:13.125Z,48.30
2019-05-01T14:24:00.670Z,48.50
2019-05-01T14:26:46.543Z,47.00
2019-05-01T14:29:21.661Z,47.30
2019-05-01T14:31:49.367Z,46.90
2019-05-01T14:34:17.093Z,47.10
2019-05-01T14:36:44.585Z,48.10
2019-05-01T14:39:12.293Z,48.10
2019-05-01T14:41:39.862Z,48.00
2019-05-01T14:44:07.525Z,49.00
2019-05-01T14:46:35.043Z,48.60
2019-05-01T14:49:02.620Z,47.90
2019-05-01T14:51:30.180Z,47.80
2019-05-01T14:53:57.828Z,48.20
2019-05-01T14:56:25.416Z,47.50
2019-05-01T14:58:52.972Z,48.40
2019-05-01T15:01:20.519Z,48.50
2019-05-01T15:03:48.177Z,48.90
2019-05-01T15:06:15.876Z,49.10
2019-05-01T15:08:43.553Z,48.80
2019-05-01T15:11:11.197Z,49.30
2019-05-01T15:14:04.339Z,49.80
2019-05-01T15:16:46.469Z,49.60
2019-05-01T15:19:16.137Z,49.90
2019-05-01T15:21:44.237Z,49.60
2019-05-01T15:24:11.824Z,49.10
2019-05-01T15:26:39.392Z,49.60
2019-05-01T15:29:06.910Z,50.30
2019-05-01T15:31:34.475Z,49.60
2019-05-01T15:34:02.116Z,49.10
2019-05-01T15:36:29.679Z,48.90
2019-05-01T15:38:57.691Z,49.20
2019-05-01T15:41:53.764Z,48.70
2019-05-01T15:44:27.378Z,49.60
2019-05-01T15:46:54.888Z,48.80
2019-05-01T15:49:22.444Z,49.50
2019-05-01T15:51:49.955Z,48.80
2019-05-01T15:54:17.492Z,47.70
2019-05-01T15:56:45.065Z,48.90
2019-05-01T15:59:12.591Z,49.20
2019-05-01T16:01:40.451Z,48.80
2019-05-01T16:04:07.997Z,49.10
2019-05-01T16:06:35.553Z,48.40
2019-05-01T16:09:05.354Z,48.50
2019-05-01T16:11:49.424Z,48.70
2019-05-01T16:14:16.954Z,48.50
2019-05-01T16:16:44.518Z,48.20
2019-05-01T16:19:11.976Z,48.00
2019-05-01T16:21:39.510Z,47.80
2019-05-01T16:24:07.047Z,47.60
2019-05-01T16:26:34.580Z,48.40
2019-05-01T16:29:02.151Z,48.80
2019-05-01T16:31:29.692Z,48.10
2019-05-01T16:33:57.220Z,47.80
2019-05-01T16:36:24.741Z,47.80
2019-05-01T16:39:10.259Z,47.90
2019-05-01T16:41:37.816Z,48.10
2019-05-01T16:44:05.379Z,47.50
2019-05-01T16:46:32.910Z,47.20
2019-05-01T16:49:00.463Z,47.00
2019-05-01T16:51:27.960Z,47.30
2019-05-01T16:53:55.553Z,47.30
2019-05-01T16:56:23.115Z,47.50
2019-05-01T16:58:50.601Z,47.50
2019-05-01T17:01:33.633Z,48.00
2019-05-01T17:04:09.840Z,48.30
2019-05-01T17:07:09.137Z,48.10
2019-05-01T17:09:54.699Z,47.90
2019-05-01T17:12:26.332Z,46.80
2019-05-01T17:14:53.893Z,47.00
2019-05-01T17:17:22.992Z,47.10
2019-05-01T17:19:50.463Z,47.50
2019-05-01T17:22:18.289Z,47.70
2019-05-01T17:24:45.844Z,47.60
2019-05-01T17:27:13.328Z,47.30
2019-05-01T17:29:40.807Z,47.10
2019-05-01T17:32:10.152Z,47.30
2019-05-01T17:34:37.699Z,46.40
2019-05-01T17:37:05.164Z,46.70
2019-05-01T17:39:32.772Z,47.10
2019-05-01T17:42:02.029Z,46.90
2019-05-01T17:44:29.663Z,46.10
2019-05-01T17:46:57.192Z,46.30
2019-05-01T17:49:24.671Z,46.80
2019-05-01T17:51:52.181Z,46.00
2019-05-01T17:54:19.736Z,46.30
2019-05-01T17:56:48.501Z,46.10
2019-05-01T17:59:16.901Z,46.30
2019-05-01T18:01:55.920Z,46.80
2019-05-01T18:04:46.508Z,45.70
2019-05-01T18:07:14.031Z,45.80
2019-05-01T18:09:41.548Z,46.20
2019-05-01T18:12:09.111Z,45.80
2019-05-01T18:14:38.157Z,45.70
2019-05-01T18:17:06.591Z,45.60
2019-05-01T18:19:34.057Z,45.70
2019-05-01T18:22:32.070Z,47.20
2019-05-01T18:25:19.375Z,46.40
2019-05-01T18:28:05.220Z,47.20
2019-05-01T18:30:36.870Z,48.50
2019-05-01T18:33:04.497Z,49.80
2019-05-01T18:35:32.000Z,50.70
2019-05-01T18:38:35.375Z,51.70
2019-05-01T18:41:25.057Z,52.50
2019-05-01T18:43:52.663Z,52.60
2019-05-01T18:46:20.446Z,53.90
2019-05-01T18:48:48.527Z,54.60
2019-05-01T18:51:16.441Z,56.10
2019-05-01T18:53:44.158Z,57.00
2019-05-01T18:56:16.678Z,57.90
2019-05-01T18:58:54.003Z,58.80
2019-05-01T19:01:26.004Z,59.00
2019-05-01T19:03:54.079Z,59.50
2019-05-01T19:06:22.199Z,60.00
2019-05-01T19:08:50.380Z,60.30
2019-05-01T19:11:18.826Z,60.40
2019-05-01T19:13:50.775Z,60.60
2019-05-01T19:16:18.963Z,61.30
2019-05-01T19:18:50.452Z,62.20
2019-05-01T19:21:20.137Z,63.40
2019-05-01T19:23:49.719Z,65.00
2019-05-01T19:26:17.209Z,66.10
2019-05-01T19:28:45.195Z,66.80
2019-05-01T19:31:13.993Z,67.00
2019-05-01T19:33:42.069Z,67.50
2019-05-01T19:36:10.346Z,66.70
2019-05-01T19:38:40.245Z,65.80
2019-05-01T19:41:08.770Z,66.60
2019-05-01T19:43:40.325Z,66.80
2019-05-01T19:46:06.165Z,67.20
2019-05-01T19:48:33.874Z,67.60
2019-05-01T19:51:01.617Z,68.20
2019-05-01T19:53:29.205Z,68.50
2019-05-01T19:55:56.783Z,68.90
2019-05-01T19:58:31.085Z,69.10
2019-05-01T20:01:04.424Z,70.50
2019-05-01T20:03:36.295Z,71.30
2019-05-01T20:06:06.176Z,71.90
2019-05-01T20:08:34.297Z,72.60
2019-05-01T20:11:01.732Z,73.50
2019-05-01T20:13:29.316Z,73.60
2019-05-01T20:15:56.771Z,73.80
2019-05-01T20:18:24.264Z,74.10
2019-05-01T20:20:55.648Z,74.40
2019-05-01T20:23:31.226Z,75.00
2019-05-01T20:26:07.394Z,75.00
2019-05-01T20:28:39.698Z,75.50
2019-05-01T20:31:09.551Z,76.50
2019-05-01T20:33:44.129Z,76.70
2019-05-01T20:36:21.694Z,76.70
2019-05-01T20:38:57.192Z,76.90
2019-05-01T20:41:31.524Z,77.80
2019-05-01T20:43:59.969Z,77.80
2019-05-01T20:46:41.069Z,78.10
2019-05-01T20:49:17.023Z,78.50
2019-05-01T20:51:59.922Z,79.10
2019-05-01T20:54:30.139Z,79.50
2019-05-01T20:57:24.710Z,79.80
2019-05-01T21:00:11.430Z,80.30
2019-05-01T21:02:57.922Z,81.00
2019-05-01T21:05:41.510Z,81.50
2019-05-01T21:08:23.434Z,82.20
2019-05-01T21:11:10.981Z,82.40
2019-05-01T21:17:36.479Z,82.40
2019-05-01T21:20:17.136Z,82.30
2019-05-01T21:22:47.848Z,82.30
2019-05-01T21:25:31.509Z,82.60
2019-05-01T21:32:33.921Z,83.40
2019-05-01T21:35:09.523Z,84.30
2019-05-01T21:37:46.269Z,83.40
2019-05-01T21:41:14.889Z,83.70
2019-05-01T21:44:45.101Z,84.20
2019-05-01T21:47:42.655Z,84.70
2019-05-01T21:54:10.471Z,85.30
2019-05-01T21:56:47.010Z,86.00
2019-05-01T21:59:35.344Z,86.30
2019-05-01T22:02:41.565Z,86.90
2019-05-01T22:05:26.929Z,87.80
2019-05-01T22:09:10.561Z,88.60
2019-05-01T22:12:25.349Z,88.80
2019-05-01T22:49:47.581Z,90.80
2019-05-01T22:52:55.784Z,90.90
2019-05-01T23:00:09.884Z,91.00
2019-05-01T23:06:47.424Z,90.90
2019-05-01T23:09:54.326Z,91.20
2019-05-01T23:13:13.523Z,91.20
2019-05-01T23:16:02.513Z,91.30
2019-05-01T23:19:11.204Z,91.40
2019-05-01T23:22:32.610Z,91.40
2019-05-01T23:43:23.108Z,91.80
2019-05-01T23:46:18.339Z,91.70
2019-05-01T23:55:42.114Z,92.10
